Time;durP1;ratioP1;P1;durP2;ratioP2;P2;SDS_P1;SDS_P2;PMS_P1;PMS_P2;Temp;Humidity;BMP_temperature;BMP_pressure;BME280_temperature;BME280_humidity;BME280_pressure;Samples;Min_cycle;Max_cycle;Signal;HPM_P1;HPM_P2
2022/01/12 00:01:14;;;;;;;15.70;8.45;;;;;;;2.52;100.00;103497.38;5055411;28;20068;-56
2022/01/12 00:03:45;;;;;;;20.80;9.02;;;;;;;2.50;100.00;103504.28;5054916;28;20049;-56
2022/01/12 00:06:14;;;;;;;16.23;8.77;;;;;;;2.50;100.00;103513.81;5054447;28;20155;-56
2022/01/12 00:08:43;;;;;;;19.67;9.48;;;;;;;2.52;100.00;103523.38;5054213;28;20450;-57
2022/01/12 00:11:11;;;;;;;18.10;9.23;;;;;;;2.54;100.00;103519.03;5054894;28;20045;-56
2022/01/12 00:13:39;;;;;;;23.30;10.90;;;;;;;2.48;100.00;103526.78;5054550;28;20139;-55
2022/01/12 00:16:07;;;;;;;20.23;10.50;;;;;;;2.52;100.00;103520.75;5054770;28;20057;-55
2022/01/12 00:18:36;;;;;;;22.00;9.85;;;;;;;2.53;100.00;103517.28;5054681;28;20083;-56
2022/01/12 00:21:05;;;;;;;18.38;10.65;;;;;;;2.47;100.00;103519.84;5054690;28;20067;-55
2022/01/12 00:23:33;;;;;;;22.90;10.88;;;;;;;2.44;100.00;103519.81;5054571;28;20052;-55
2022/01/12 00:26:06;;;;;;;22.08;11.75;;;;;;;2.45;100.00;103518.94;5054613;28;20483;-56
2022/01/12 00:34:09;;;;;;;23.63;11.27;;;;;;;2.38;100.00;103535.31;5054591;28;20412;-53
2022/01/12 00:36:38;;;;;;;21.83;11.63;;;;;;;2.40;100.00;103538.81;5054586;28;20056;-55
2022/01/12 00:39:08;;;;;;;23.98;11.65;;;;;;;2.42;100.00;103538.81;5054469;28;20052;-54
2022/01/12 00:41:38;;;;;;;22.65;12.32;;;;;;;2.39;100.00;103530.97;5054632;28;20480;-52
2022/01/12 00:44:09;;;;;;;24.25;12.07;;;;;;;2.43;100.00;103543.16;5054016;28;20044;-56
2022/01/12 00:46:38;;;;;;;25.02;11.82;;;;;;;2.41;100.00;103543.13;5054250;28;20052;-55
2022/01/12 00:49:07;;;;;;;24.50;11.82;;;;;;;2.37;100.00;103543.94;5053614;28;20045;-55
2022/01/12 00:51:37;;;;;;;22.58;11.80;;;;;;;2.36;100.00;103543.09;5053057;28;20503;-56
2022/01/12 00:54:08;;;;;;;23.73;11.30;;;;;;;2.37;100.00;103543.94;5053521;28;20140;-54
2022/01/12 00:56:36;;;;;;;26.40;13.43;;;;;;;2.37;100.00;103541.34;5053443;28;20527;-55
2022/01/12 00:59:04;;;;;;;22.95;11.88;;;;;;;2.38;100.00;103532.69;5052142;28;20102;-54
2022/01/12 01:01:33;;;;;;;21.88;13.15;;;;;;;2.29;100.00;103524.78;5053358;28;20048;-54
2022/01/12 01:04:02;;;;;;;24.95;12.32;;;;;;;2.19;100.00;103524.66;5053406;28;20501;-56
2022/01/12 01:06:31;;;;;;;23.08;12.63;;;;;;;2.25;100.00;103521.31;5053250;28;20107;-52
2022/01/12 01:09:00;;;;;;;22.38;12.65;;;;;;;2.22;100.00;103525.56;5053709;28;20041;-55
2022/01/12 01:11:29;;;;;;;26.20;13.65;;;;;;;2.25;100.00;103523.00;5053609;28;20048;-53
2022/01/12 01:13:59;;;;;;;21.60;13.25;;;;;;;2.28;100.00;103523.06;5053755;28;20079;-52
2022/01/12 01:16:44;;;;;;;22.23;11.98;;;;;;;2.28;100.00;103518.75;5053597;28;20057;-56
2022/01/12 01:27:47;;;;;;;22.73;12.85;;;;;;;2.14;100.00;103541.03;5053280;28;20045;-55
2022/01/12 01:30:16;;;;;;;22.17;12.50;;;;;;;2.16;100.00;103545.41;5053752;28;20110;-55
2022/01/12 01:32:45;;;;;;;22.88;13.95;;;;;;;2.17;100.00;103546.31;5053433;28;20053;-53
2022/01/12 01:35:13;;;;;;;21.58;12.68;;;;;;;2.15;100.00;103556.63;5053276;28;20048;-56
2022/01/12 01:37:41;;;;;;;22.15;12.85;;;;;;;2.18;100.00;103564.50;5053314;28;20049;-56
2022/01/12 01:40:11;;;;;;;22.65;13.07;;;;;;;2.20;100.00;103561.91;5051421;28;20106;-55
2022/01/12 01:42:55;;;;;;;22.90;13.68;;;;;;;2.16;100.00;103544.56;5052499;28;20049;-56
2022/01/12 01:53:44;;;;;;;22.13;13.55;;;;;;;2.07;100.00;103528.84;5052816;28;20049;-54
2022/01/12 01:56:13;;;;;;;27.05;13.88;;;;;;;2.10;100.00;103529.78;5052495;28;20053;-54
2022/01/12 01:58:43;;;;;;;28.55;14.57;;;;;;;2.05;100.00;103533.16;5052462;28;20124;-55
2022/01/12 02:01:16;;;;;;;28.48;15.95;;;;;;;1.99;100.00;103531.31;5052482;28;20787;-56
2022/01/12 02:03:45;;;;;;;24.17;15.27;;;;;;;2.05;100.00;103534.03;5052795;28;20076;-55
2022/01/12 02:06:13;;;;;;;26.77;16.30;;;;;;;2.09;100.00;103533.22;5052512;28;20057;-55
2022/01/12 02:08:42;;;;;;;26.50;14.95;;;;;;;2.11;100.00;103543.63;5052931;28;20280;-56
2022/01/12 02:11:10;;;;;;;27.88;15.48;;;;;;;2.07;100.00;103544.41;5052672;28;20049;-55
2022/01/12 02:13:38;;;;;;;26.33;14.63;;;;;;;2.14;100.00;103541.94;5051285;28;20061;-54
2022/01/12 02:16:06;;;;;;;27.38;14.63;;;;;;;2.16;100.00;103539.34;5052757;28;20099;-56
2022/01/12 02:19:05;;;;;;;23.30;13.75;;;;;;;2.12;100.00;103548.81;5052491;28;20052;-56
2022/01/12 02:35:43;;;;;;;28.67;14.88;;;;;;;2.19;100.00;103570.56;5052031;28;20057;-55
2022/01/12 02:40:59;;;;;;;25.42;14.82;;;;;;;2.22;100.00;103574.91;5052101;28;20060;-54
2022/01/12 02:43:40;;;;;;;28.85;15.40;;;;;;;2.24;100.00;103575.81;5052219;28;20071;-55
2022/01/12 02:54:22;;;;;;;29.00;16.00;;;;;;;2.29;100.00;103600.09;5051633;28;20052;-55
2022/01/12 02:56:50;;;;;;;29.27;15.73;;;;;;;2.30;100.00;103612.25;5052007;28;20053;-56
2022/01/12 02:59:18;;;;;;;29.25;15.45;;;;;;;2.26;100.00;103626.03;5052147;28;20051;-56
2022/01/12 03:04:28;;;;;;;30.57;17.77;;;;;;;2.28;100.00;103627.81;5034271;28;20053;-55
2022/01/12 03:07:04;;;;;;;26.52;16.20;;;;;;;2.30;100.00;103626.09;5051835;28;20049;-56
2022/01/12 03:09:34;;;;;;;35.10;16.58;;;;;;;2.25;100.00;103630.38;5051835;28;20049;-56
2022/01/12 03:12:02;;;;;;;34.53;17.33;;;;;;;2.27;100.00;103638.19;5051651;28;20052;-55
2022/01/12 03:14:30;;;;;;;31.38;17.55;;;;;;;2.26;100.00;103636.44;5053904;28;20453;-56
2022/01/12 03:16:58;;;;;;;33.50;18.60;;;;;;;2.26;100.00;103637.31;5055830;28;20049;-56
2022/01/12 03:19:26;;;;;;;34.55;18.17;;;;;;;2.26;100.00;103645.09;5055695;28;20372;-54
2022/01/12 03:21:54;;;;;;;34.33;17.55;;;;;;;2.29;100.00;103645.16;5055785;28;20048;-55
2022/01/12 03:24:22;;;;;;;34.97;18.60;;;;;;;2.28;100.00;103653.78;5055701;28;20129;-56
2022/01/12 03:26:52;;;;;;;32.67;18.10;;;;;;;2.29;100.00;103642.56;5054264;28;20068;-56
2022/01/12 03:29:20;;;;;;;34.25;17.80;;;;;;;2.36;100.00;103633.13;5055533;28;20090;-56
2022/01/12 03:31:48;;;;;;;36.15;19.45;;;;;;;2.32;100.00;103623.56;5055680;28;20422;-56
2022/01/12 03:34:23;;;;;;;36.42;18.38;;;;;;;2.38;100.00;103634.00;5055515;28;20128;-55
2022/01/12 03:37:16;;;;;;;37.95;18.58;;;;;;;2.39;100.00;103640.97;5055482;28;20090;-52
2022/01/12 03:39:43;;;;;;;37.77;18.90;;;;;;;2.36;100.00;103630.53;5055399;28;20036;-55
2022/01/12 03:42:14;;;;;;;38.83;20.17;;;;;;;2.39;100.00;103637.47;5055422;28;20398;-55
2022/01/12 03:44:42;;;;;;;37.65;18.88;;;;;;;2.34;100.00;103637.41;5055311;28;20403;-54
2022/01/12 03:47:10;;;;;;;40.85;20.65;;;;;;;2.36;100.00;103635.72;5054643;28;20052;-53
2022/01/12 03:49:38;;;;;;;40.30;20.65;;;;;;;2.36;100.00;103630.53;5054881;28;20045;-54
2022/01/12 03:52:07;;;;;;;38.33;19.05;;;;;;;2.35;100.00;103637.44;5055400;28;20087;-54
2022/01/12 03:54:35;;;;;;;38.65;19.50;;;;;;;2.38;100.00;103644.41;5055075;28;20045;-54
2022/01/12 03:57:03;;;;;;;35.25;18.52;;;;;;;2.39;100.00;103638.38;5055208;28;20107;-55
2022/01/12 03:59:33;;;;;;;41.10;19.77;;;;;;;2.37;100.00;103627.06;5055346;28;20403;-54
2022/01/12 04:02:01;;;;;;;35.22;19.73;;;;;;;2.33;100.00;103620.06;5055062;28;20049;-55
2022/01/12 04:04:35;;;;;;;36.92;19.45;;;;;;;2.34;100.00;103634.81;5055505;28;20037;-56
2022/01/12 04:09:49;;;;;;;36.55;19.02;;;;;;;2.33;100.00;103625.28;5054541;28;20053;-56
2022/01/12 04:12:17;;;;;;;34.75;19.30;;;;;;;2.34;100.00;103630.47;5054878;28;20388;-56
2022/01/12 04:14:47;;;;;;;35.38;18.40;;;;;;;2.38;100.00;103628.81;5055051;28;20053;-55
2022/01/12 04:17:15;;;;;;;35.92;18.65;;;;;;;2.36;100.00;103635.72;5054754;28;20076;-55
2022/01/12 04:19:43;;;;;;;33.00;18.55;;;;;;;2.42;100.00;103633.19;5054842;28;20110;-53
2022/01/12 04:24:54;;;;;;;36.63;19.25;;;;;;;2.35;100.00;103633.97;5054057;28;20049;-54
2022/01/12 04:27:22;;;;;;;33.60;18.42;;;;;;;2.37;100.00;103629.66;5054165;28;20135;-55
2022/01/12 04:29:51;;;;;;;39.20;19.30;;;;;;;2.37;100.00;103627.06;5054709;28;20431;-56
2022/01/12 04:32:21;;;;;;;36.22;19.40;;;;;;;2.39;100.00;103627.06;5054426;28;20055;-55
2022/01/12 04:34:49;;;;;;;32.78;18.73;;;;;;;2.37;100.00;103627.06;5054790;28;20491;-55
2022/01/12 04:37:17;;;;;;;32.35;17.70;;;;;;;2.40;100.00;103628.84;5054287;28;20045;-56
2022/01/12 04:39:45;;;;;;;33.67;18.08;;;;;;;2.38;100.00;103631.41;5054331;28;20174;-54
2022/01/12 04:42:14;;;;;;;37.22;18.92;;;;;;;2.38;100.00;103634.00;5054514;28;20079;-56
2022/01/12 04:44:45;;;;;;;36.30;18.70;;;;;;;2.41;100.00;103634.03;5054405;28;20087;-55
2022/01/12 04:47:28;;;;;;;32.72;18.08;;;;;;;2.42;100.00;103632.34;5054260;28;20476;-55
2022/01/12 04:49:57;;;;;;;30.42;17.25;;;;;;;2.42;100.00;103633.19;5054392;28;20045;-56
2022/01/12 04:52:25;;;;;;;34.03;18.35;;;;;;;2.44;100.00;103626.31;5054060;28;20111;-55
2022/01/12 04:54:54;;;;;;;34.40;18.20;;;;;;;2.45;100.00;103622.84;5054086;28;20053;-56
2022/01/12 04:57:22;;;;;;;34.33;19.13;;;;;;;2.38;100.00;103628.81;5054356;28;20850;-57
2022/01/12 05:00:04;;;;;;;34.40;18.65;;;;;;;2.39;100.00;103633.16;5054033;28;20049;-55
2022/01/12 05:08:17;;;;;;;36.28;19.38;;;;;;;2.42;100.00;103638.41;5053447;28;20056;-53
2022/01/12 05:13:32;;;;;;;30.60;18.40;;;;;;;2.44;100.00;103649.69;5053831;28;20115;-55
2022/01/12 05:16:01;;;;;;;32.42;17.45;;;;;;;2.44;100.00;103646.19;5054033;28;20075;-55
2022/01/12 05:18:32;;;;;;;33.28;17.75;;;;;;;2.44;100.00;103646.19;5053657;28;20049;-54
2022/01/12 05:21:01;;;;;;;32.75;19.08;;;;;;;2.44;100.00;103644.50;5053754;28;20376;-55
2022/01/12 05:23:29;;;;;;;36.30;18.80;;;;;;;2.45;100.00;103646.22;5053500;28;20041;-55
2022/01/12 05:25:57;;;;;;;37.92;19.52;;;;;;;2.45;100.00;103646.22;5053555;28;20052;-54
2022/01/12 05:28:26;;;;;;;32.47;17.48;;;;;;;2.46;100.00;103647.13;5053368;28;20052;-55
2022/01/12 05:30:55;;;;;;;34.65;18.88;;;;;;;2.46;100.00;103653.16;5053205;28;20095;-53
2022/01/12 05:33:25;;;;;;;33.78;18.85;;;;;;;2.48;100.00;103655.78;5053266;28;20044;-55
2022/01/12 05:35:56;;;;;;;37.55;18.80;;;;;;;2.45;100.00;103653.16;5052964;28;20048;-54
2022/01/12 05:38:25;;;;;;;34.45;21.05;;;;;;;2.46;100.00;103647.97;5052858;28;20048;-53
2022/01/12 05:40:56;;;;;;;37.72;19.98;;;;;;;2.45;100.00;103651.41;5053468;28;20591;-53
2022/01/12 05:43:27;;;;;;;38.65;18.80;;;;;;;2.44;100.00;103644.50;5053597;28;20439;-53
2022/01/12 05:45:57;;;;;;;33.78;18.85;;;;;;;2.43;100.00;103642.75;5053134;28;20140;-53
2022/01/12 05:51:13;;;;;;;35.22;18.92;;;;;;;2.48;100.00;103633.28;5052467;28;20476;-55
2022/01/12 05:53:41;;;;;;;34.10;19.35;;;;;;;2.49;100.00;103629.81;5051239;28;20102;-55
2022/01/12 05:56:09;;;;;;;38.17;20.33;;;;;;;2.49;100.00;103635.00;5049783;28;20052;-54
2022/01/12 05:58:37;;;;;;;36.72;19.15;;;;;;;2.52;100.00;103647.19;5051553;28;20102;-54
2022/01/12 06:01:05;;;;;;;38.05;19.75;;;;;;;2.52;100.00;103662.78;5052894;28;20095;-54
2022/01/12 06:03:33;;;;;;;35.45;20.13;;;;;;;2.47;100.00;103665.31;5052925;28;20147;-54
2022/01/12 06:06:02;;;;;;;35.65;19.27;;;;;;;2.47;100.00;103667.06;5052644;28;20127;-54
2022/01/12 06:08:34;;;;;;;35.40;19.67;;;;;;;2.50;100.00;103667.09;5052384;28;20052;-54
2022/01/12 06:11:02;;;;;;;36.25;20.83;;;;;;;2.48;100.00;103673.97;5052492;28;20372;-55
2022/01/12 06:13:31;;;;;;;38.50;18.75;;;;;;;2.49;100.00;103684.38;5052462;28;20045;-52
2022/01/12 06:15:59;;;;;;;39.78;19.98;;;;;;;2.48;100.00;103685.25;5052652;28;20048;-55
2022/01/12 06:18:27;;;;;;;36.10;18.55;;;;;;;2.49;100.00;103692.19;5052472;28;20628;-52
2022/01/12 06:20:55;;;;;;;39.90;19.55;;;;;;;2.51;100.00;103700.03;5052682;28;20053;-54
2022/01/12 06:23:23;;;;;;;37.65;18.42;;;;;;;2.53;100.00;103706.97;5052614;28;20052;-53
2022/01/12 06:25:53;;;;;;;40.55;20.98;;;;;;;2.50;100.00;103711.25;5048938;28;20435;-52
2022/01/12 06:28:34;;;;;;;41.08;20.92;;;;;;;2.48;100.00;103713.84;5049264;28;20052;-53
2022/01/12 06:31:11;;;;;;;39.20;20.25;;;;;;;2.49;100.00;103720.75;5052520;28;20504;-55
2022/01/12 06:33:41;;;;;;;47.13;20.13;;;;;;;2.47;100.00;103719.88;5051036;28;20045;-54
2022/01/12 06:36:10;;;;;;;43.95;20.55;;;;;;;2.47;100.00;103719.88;5052296;28;20051;-54
2022/01/12 06:38:38;;;;;;;43.20;21.98;;;;;;;2.51;100.00;103718.22;5052312;28;20443;-53
2022/01/12 06:41:08;;;;;;;48.22;22.13;;;;;;;2.47;100.00;103717.28;5050529;28;20049;-55
2022/01/12 06:43:37;;;;;;;51.92;21.70;;;;;;;2.49;100.00;103725.94;5047986;28;20048;-55
2022/01/12 06:46:06;;;;;;;43.58;20.98;;;;;;;2.48;100.00;103724.22;5049463;28;20427;-55
2022/01/12 06:48:35;;;;;;;42.08;22.50;;;;;;;2.50;100.00;103727.72;5051459;28;20511;-54
2022/01/12 06:51:03;;;;;;;47.00;21.02;;;;;;;2.57;100.00;103733.88;5051910;28;20491;-54
2022/01/12 06:53:33;;;;;;;47.63;22.60;;;;;;;2.59;100.00;103732.19;5051791;28;20095;-52
2022/01/12 06:56:02;;;;;;;47.25;20.63;;;;;;;2.62;100.00;103744.31;5051780;28;20053;-54
2022/01/12 06:58:31;;;;;;;43.17;21.15;;;;;;;2.63;100.00;103746.06;5051917;28;20056;-53
2022/01/12 07:00:59;;;;;;;44.65;22.17;;;;;;;2.63;100.00;103753.88;5052112;28;20181;-54
2022/01/12 07:03:28;;;;;;;45.25;21.88;;;;;;;2.62;100.00;103746.91;5048601;28;20557;-52
2022/01/12 07:05:56;;;;;;;42.95;21.63;;;;;;;2.65;100.00;103742.66;5048766;28;20578;-53
2022/01/12 07:08:24;;;;;;;47.22;20.88;;;;;;;2.67;100.00;103748.75;5051910;28;20041;-53
2022/01/12 07:10:52;;;;;;;45.28;21.40;;;;;;;2.66;100.00;103757.41;5051888;28;20077;-54
2022/01/12 07:13:20;;;;;;;45.03;21.95;;;;;;;2.67;100.00;103766.94;5051794;28;20049;-54
2022/01/12 07:15:55;;;;;;;45.33;21.45;;;;;;;2.67;100.00;103764.34;5051240;28;20045;-54
2022/01/12 07:18:26;;;;;;;45.08;19.63;;;;;;;2.63;100.00;103770.34;5047729;28;20053;-52
2022/01/12 07:20:54;;;;;;;45.40;20.17;;;;;;;2.63;100.00;103766.88;5048848;28;20073;-54
2022/01/12 07:23:22;;;;;;;42.95;19.13;;;;;;;2.64;100.00;103777.28;5051910;28;20056;-54
2022/01/12 07:25:50;;;;;;;39.47;17.40;;;;;;;2.64;100.00;103777.28;5051627;28;20049;-54
2022/01/12 07:28:19;;;;;;;35.88;14.85;;;;;;;2.52;100.00;103783.19;5051550;28;20064;-53
2022/01/12 07:30:47;;;;;;;35.45;15.05;;;;;;;2.66;100.00;103785.13;5051764;28;20480;-54
2022/01/12 07:33:17;;;;;;;33.30;15.88;;;;;;;2.67;100.00;103792.03;5051820;28;20037;-54
2022/01/12 07:35:45;;;;;;;36.20;15.70;;;;;;;2.65;100.00;103788.56;5051790;28;20045;-55
2022/01/12 07:38:13;;;;;;;36.10;15.50;;;;;;;2.66;100.00;103785.13;5051522;28;20044;-55
2022/01/12 07:40:41;;;;;;;36.22;15.93;;;;;;;2.67;100.00;103795.53;5051679;28;20044;-54
2022/01/12 07:43:10;;;;;;;38.97;16.10;;;;;;;2.69;100.00;103806.81;5051763;28;20079;-55
2022/01/12 07:45:38;;;;;;;37.22;16.30;;;;;;;2.68;100.00;103809.41;5051919;28;20052;-54
2022/01/12 07:48:06;;;;;;;35.33;15.05;;;;;;;2.68;100.00;103809.41;5051646;28;20120;-55
2022/01/12 07:50:36;;;;;;;37.75;15.63;;;;;;;2.70;100.00;103815.50;5051454;28;20051;-54
2022/01/12 07:53:04;;;;;;;31.45;13.93;;;;;;;2.73;100.00;103823.34;5051501;28;20068;-55
2022/01/12 07:55:32;;;;;;;31.58;14.23;;;;;;;2.66;100.00;103827.56;5051586;28;20052;-55
2022/01/12 07:58:00;;;;;;;34.03;14.07;;;;;;;2.69;100.00;103827.59;5051172;28;20049;-54
2022/01/12 08:00:28;;;;;;;35.78;14.15;;;;;;;2.76;100.00;103838.97;5052826;28;20041;-53
2022/01/12 08:02:56;;;;;;;31.67;13.60;;;;;;;2.80;100.00;103838.19;5055156;28;20083;-55
2022/01/12 08:05:25;;;;;;;31.67;14.32;;;;;;;2.80;100.00;103834.72;5054720;28;20060;-55
2022/01/12 08:07:55;;;;;;;35.13;15.32;;;;;;;2.80;100.00;103829.50;5054831;28;20041;-55
2022/01/12 08:10:23;;;;;;;32.55;13.30;;;;;;;2.74;100.00;103837.19;5054964;28;20045;-52
2022/01/12 08:12:51;;;;;;;34.08;13.63;;;;;;;2.77;100.00;103835.53;5054508;28;20496;-54
2022/01/12 08:15:19;;;;;;;28.98;12.43;;;;;;;2.80;100.00;103835.56;5054687;28;20718;-54
2022/01/12 08:17:48;;;;;;;32.30;12.68;;;;;;;2.80;100.00;103838.19;5054943;28;20045;-54
2022/01/12 08:20:21;;;;;;;34.20;13.50;;;;;;;2.77;100.00;103835.53;5054840;28;20069;-54
2022/01/12 08:22:49;;;;;;;32.03;13.75;;;;;;;2.77;100.00;103842.44;5054647;28;20228;-51
2022/01/12 08:25:19;;;;;;;32.67;12.93;;;;;;;2.79;100.00;103836.41;5053630;28;20045;-53
2022/01/12 08:27:48;;;;;;;36.17;13.23;;;;;;;2.83;100.00;103850.34;5051252;28;20045;-51
2022/01/12 08:30:18;;;;;;;39.83;14.65;;;;;;;2.86;100.00;103851.28;5051959;28;20045;-53
2022/01/12 08:32:47;;;;;;;36.92;13.93;;;;;;;2.81;100.00;103846.84;5054410;28;20041;-54
2022/01/12 08:35:16;;;;;;;38.45;15.50;;;;;;;2.76;100.00;103851.97;5054194;28;20127;-55
2022/01/12 08:37:44;;;;;;;35.65;13.50;;;;;;;2.78;100.00;103852.00;5050305;28;20052;-51
2022/01/12 08:40:14;;;;;;;35.67;14.50;;;;;;;2.75;100.00;103867.56;5051348;28;20545;-52
2022/01/12 08:42:44;;;;;;;38.63;14.23;;;;;;;2.79;100.00;103857.22;5054356;28;20499;-53
2022/01/12 08:45:13;;;;;;;35.90;15.60;;;;;;;2.82;100.00;103853.78;5054363;28;20483;-53
2022/01/12 08:47:41;;;;;;;36.78;15.05;;;;;;;2.81;100.00;103852.94;5054119;28;20479;-54
2022/01/12 08:50:10;;;;;;;37.75;15.25;;;;;;;2.89;100.00;103847.84;5054100;28;20128;-52
2022/01/12 08:52:44;;;;;;;34.17;15.32;;;;;;;2.88;100.00;103853.91;5053930;28;20491;-54
2022/01/12 08:55:13;;;;;;;34.67;14.85;;;;;;;2.92;100.00;103852.19;5054391;28;20135;-53
2022/01/12 08:57:42;;;;;;;32.92;14.10;;;;;;;2.96;100.00;103848.78;5054222;28;20048;-54
2022/01/12 09:00:12;;;;;;;33.22;14.95;;;;;;;3.00;100.00;103868.78;5053894;28;20040;-52
2022/01/12 09:02:41;;;;;;;36.47;15.40;;;;;;;3.02;100.00;103873.16;5054067;28;20045;-54
2022/01/12 09:05:11;;;;;;;32.60;12.88;;;;;;;3.01;100.00;103884.44;5053775;28;20065;-53
2022/01/12 09:07:39;;;;;;;35.50;14.18;;;;;;;3.05;100.00;103893.16;5053827;28;20669;-53
2022/01/12 09:10:09;;;;;;;36.58;15.77;;;;;;;3.07;100.00;103900.97;5053705;28;20131;-54
2022/01/12 09:12:38;;;;;;;35.00;15.60;;;;;;;3.08;100.00;103903.63;5053013;28;20045;-54
2022/01/12 09:15:09;;;;;;;33.05;14.43;;;;;;;3.05;100.00;103913.94;5053646;28;20068;-54
2022/01/12 09:17:38;;;;;;;37.08;14.95;;;;;;;3.08;100.00;103919.22;5053530;28;20047;-55
2022/01/12 09:20:08;;;;;;;37.30;16.08;;;;;;;3.11;100.00;103916.66;5051760;28;20048;-54
2022/01/12 09:22:38;;;;;;;35.58;15.75;;;;;;;3.14;100.00;103919.28;5050208;28;20063;-53
2022/01/12 09:25:09;;;;;;;33.72;15.02;;;;;;;3.22;100.00;103922.88;5052779;28;20892;-55
2022/01/12 09:27:38;;;;;;;34.47;14.93;;;;;;;3.26;100.00;103929.03;5050041;28;20057;-55
2022/01/12 09:30:11;;;;;;;33.53;14.82;;;;;;;3.20;100.00;103932.41;5048422;28;20087;-59
2022/01/12 09:32:39;;;;;;;27.42;13.57;;;;;;;3.21;100.00;103936.75;5052969;28;20045;-53
2022/01/12 09:35:09;;;;;;;31.48;13.30;;;;;;;3.24;100.00;103929.84;5050975;28;20041;-55
2022/01/12 09:37:37;;;;;;;34.35;13.05;;;;;;;3.28;100.00;103940.31;5049139;28;20040;-53
2022/01/12 09:40:06;;;;;;;32.25;14.10;;;;;;;3.25;100.00;103947.22;5052874;28;20103;-52
2022/01/12 09:42:35;;;;;;;30.55;13.77;;;;;;;3.25;100.00;103952.41;5053015;28;20041;-53
2022/01/12 09:45:06;;;;;;;33.35;13.30;;;;;;;3.28;100.00;103952.47;5052662;28;20079;-54
2022/01/12 09:47:35;;;;;;;33.58;14.75;;;;;;;3.32;100.00;103955.13;5048091;28;20106;-54
2022/01/12 09:50:04;;;;;;;35.45;14.52;;;;;;;3.29;100.00;103943.81;5042346;28;20056;-51
2022/01/12 09:52:33;;;;;;;33.47;14.25;;;;;;;3.31;100.00;103956.00;5052020;28;20044;-52
2022/01/12 09:55:01;;;;;;;30.70;14.00;;;;;;;3.31;100.00;103957.69;5052756;28;20063;-51
2022/01/12 09:57:29;;;;;;;37.33;14.43;;;;;;;3.27;100.00;103953.28;5053192;28;20045;-54
2022/01/12 09:59:57;;;;;;;29.83;13.27;;;;;;;3.32;100.00;103954.25;5052530;28;20049;-53
2022/01/12 10:02:25;;;;;;;28.70;14.15;;;;;;;3.32;100.00;103956.84;5052749;28;20171;-54
2022/01/12 10:05:03;;;;;;;32.22;14.10;;;;;;;3.25;100.00;103958.47;5051084;28;20049;-51
2022/01/12 10:07:31;;;;;;;28.35;12.60;;;;;;;3.23;100.00;103957.56;5051430;28;20057;-54
2022/01/12 10:10:04;;;;;;;33.08;13.73;;;;;;;3.25;100.00;103960.22;5047833;28;20044;-54
2022/01/12 10:12:33;;;;;;;30.73;13.63;;;;;;;3.31;100.00;103973.31;5050482;28;20522;-53
2022/01/12 10:15:03;;;;;;;29.55;13.77;;;;;;;3.39;100.00;103961.28;5052469;28;20056;-53
2022/01/12 10:17:34;;;;;;;29.48;12.93;;;;;;;3.43;100.00;103968.28;5048300;28;20053;-54
2022/01/12 10:20:09;;;;;;;31.63;12.68;;;;;;;3.44;100.00;103962.25;5049192;28;20045;-53
2022/01/12 10:22:37;;;;;;;24.88;12.40;;;;;;;3.48;100.00;103964.03;5065414;28;20080;-54
2022/01/12 10:25:15;;;;;;;29.45;14.13;;;;;;;3.49;100.00;103963.19;5047440;28;20052;-54
2022/01/12 10:27:45;;;;;;;29.50;12.02;;;;;;;3.50;100.00;103964.03;5051561;28;20041;-53
2022/01/12 10:30:21;;;;;;;29.80;12.95;;;;;;;3.61;100.00;103964.19;5052202;28;20411;-52
2022/01/12 10:33:00;;;;;;;29.15;12.93;;;;;;;3.55;100.00;103958.06;5050776;28;20043;-54
2022/01/12 10:35:34;;;;;;;33.95;13.88;;;;;;;3.55;100.00;103955.44;5047745;28;20380;-55
2022/01/12 10:38:09;;;;;;;34.70;14.88;;;;;;;3.57;100.00;103959.81;5051229;28;20048;-54
2022/01/12 10:40:48;;;;;;;31.50;13.02;;;;;;;3.57;100.00;103957.22;5052280;28;20045;-53
2022/01/12 10:43:27;;;;;;;31.52;12.60;;;;;;;3.61;100.00;103961.59;5052251;28;20053;-54
2022/01/12 10:45:55;;;;;;;31.30;13.30;;;;;;;3.64;100.00;103967.72;5048834;28;20045;-51
2022/01/12 10:48:25;;;;;;;29.90;12.85;;;;;;;3.64;100.00;103957.31;5047794;28;20122;-53
2022/01/12 10:50:55;;;;;;;30.77;12.50;;;;;;;3.70;100.00;103960.00;5050962;28;20055;-53
2022/01/12 10:53:28;;;;;;;33.35;12.43;;;;;;;3.70;100.00;103956.53;5047084;28;20503;-54
2022/01/12 10:56:05;;;;;;;28.92;11.35;;;;;;;3.76;100.00;103959.19;5048287;28;20056;-51
2022/01/12 10:58:34;;;;;;;30.38;12.18;;;;;;;3.78;100.00;103973.13;5052351;28;20203;-54
2022/01/12 11:01:02;;;;;;;30.30;13.70;;;;;;;3.79;100.00;103976.59;5051929;28;20041;-54
2022/01/12 11:03:31;;;;;;;32.40;13.85;;;;;;;3.93;100.00;103977.66;5050882;28;20045;-54
2022/01/12 11:06:00;;;;;;;29.58;12.40;;;;;;;3.87;100.00;103980.16;5047905;28;20791;-54
2022/01/12 11:08:29;;;;;;;30.10;11.52;;;;;;;3.89;100.00;103973.25;5049146;28;20053;-53
2022/01/12 11:10:59;;;;;;;28.90;12.23;;;;;;;3.95;100.00;103982.88;5052084;28;20048;-54
2022/01/12 11:13:29;;;;;;;28.02;12.55;;;;;;;3.78;100.00;103975.72;5051832;28;20488;-53
2022/01/12 11:15:58;;;;;;;28.88;12.80;;;;;;;3.95;100.00;103977.66;5051834;28;20045;-54
2022/01/12 11:18:29;;;;;;;28.40;11.75;;;;;;;3.88;100.00;103977.56;5051801;28;20054;-52
2022/01/12 11:21:05;;;;;;;28.70;11.70;;;;;;;3.95;100.00;103973.31;5051851;28;20072;-54
2022/01/12 11:23:36;;;;;;;34.72;13.52;;;;;;;4.05;100.00;103971.75;5051778;28;20049;-54
2022/01/12 11:26:14;;;;;;;28.35;12.63;;;;;;;3.95;100.00;103964.66;5047787;28;20399;-55
2022/01/12 11:28:42;;;;;;;32.55;13.85;;;;;;;4.03;100.00;103958.66;5047451;28;20245;-51
2022/01/12 11:31:12;;;;;;;29.23;12.35;;;;;;;4.18;100.00;103947.56;5051428;28;20122;-51
2022/01/12 11:33:42;;;;;;;32.33;14.10;;;;;;;4.19;100.00;103948.44;5051312;28;20147;-54
2022/01/12 11:36:22;;;;;;;30.80;12.52;;;;;;;4.18;100.00;103952.75;5054352;28;20088;-51
2022/01/12 11:39:00;;;;;;;29.23;12.38;;;;;;;4.23;100.00;103943.28;5055205;28;20053;-54
2022/01/12 11:41:30;;;;;;;31.75;13.80;;;;;;;4.20;100.00;103945.84;5050780;28;20045;-52
2022/01/12 11:44:07;;;;;;;30.85;13.00;;;;;;;4.23;100.00;103942.41;5053207;28;20064;-52
2022/01/12 11:46:47;;;;;;;34.08;13.18;;;;;;;4.18;100.00;103946.69;5055343;28;20053;-53
2022/01/12 11:49:28;;;;;;;28.98;12.75;;;;;;;4.13;100.00;103943.16;5055410;28;20049;-54
2022/01/12 11:51:58;;;;;;;41.10;14.20;;;;;;;4.19;100.00;103944.09;5055276;28;20398;-53
2022/01/12 11:54:31;;;;;;;33.97;13.57;;;;;;;4.20;100.00;103945.00;5054842;28;20530;-54
2022/01/12 11:57:02;;;;;;;31.52;13.38;;;;;;;4.23;100.00;103945.88;5051712;28;20521;-54
2022/01/12 11:59:31;;;;;;;29.80;13.10;;;;;;;4.13;100.00;103953.56;5049270;28;20057;-55
2022/01/12 12:02:09;;;;;;;30.88;13.52;;;;;;;4.20;100.00;103948.47;5055261;28;20052;-54
2022/01/12 12:04:38;;;;;;;34.47;14.55;;;;;;;4.23;100.00;103952.84;5055064;28;20045;-54
2022/01/12 12:07:09;;;;;;;30.70;13.93;;;;;;;4.23;100.00;103952.84;5051944;28;20045;-54
2022/01/12 12:09:40;;;;;;;29.75;12.38;;;;;;;4.06;100.00;103950.91;5051351;28;20511;-52
2022/01/12 12:12:16;;;;;;;31.27;12.95;;;;;;;4.09;100.00;103950.09;5054403;28;20059;-53
2022/01/12 12:14:46;;;;;;;27.63;11.52;;;;;;;4.11;100.00;103956.16;5054446;28;20133;-53
2022/01/12 12:17:14;;;;;;;26.88;12.85;;;;;;;4.02;100.00;103958.66;5054445;28;20353;-54
2022/01/12 12:19:43;;;;;;;30.70;12.27;;;;;;;3.98;100.00;103952.56;5052472;28;20049;-53
2022/01/12 12:22:15;;;;;;;32.40;12.38;;;;;;;4.03;100.00;103963.88;5051336;28;20044;-52
2022/01/12 12:24:47;;;;;;;28.17;12.85;;;;;;;4.05;100.00;103949.16;5054135;28;20051;-53
2022/01/12 12:27:19;;;;;;;27.08;11.88;;;;;;;4.13;100.00;103945.75;5054797;28;20051;-52
2022/01/12 12:29:49;;;;;;;29.52;12.95;;;;;;;4.19;100.00;103931.06;5054639;28;20053;-52